24.5°F
Current conditions from King Hill
Updated every 5 minutes
 
  Thursday November 20, 2014

Station Historical Data
Daily Summary for February 8, 2011 Units:  English    Metric   Both
« Previous Day
Next Day »
Daily Weekly Monthly Yearly Custom
  High: Low: Average:
Temperature: 31.5 °F 0.3 °F 16.3 °F
Dew Point: 30.0 °F -5.7 °F 12.4 °F
Humidity: 94% 72% 84%
Wind Speed: 8.0mph 1.0mph 3mph
Wind Gust: 16.0mph - -
Wind- - WSW
Pressure: 29.97 in 29.51 in -
Precipitation: 0.00 in    
Historical Graphs
 
 
Tabular Data for February 8, 2011
Time Temperature Dew Point Pressure Wind Wind Speed Wind Gust Humidity Daily Rainfall
00:10 31.4 °F 29.6 °F 29.65 in SSW 3.0 mph 6.0 mph 93% 0.00 in
00:35 31.4 °F 29.6 °F 29.65 in SSW 4.0 mph 7.0 mph 93% 0.00 in
00:40 31.4 °F 29.9 °F 29.64 in SSW 5.0 mph 7.0 mph 94% 0.00 in
00:45 31.4 °F 29.9 °F 29.64 in SSW 5.0 mph 7.0 mph 94% 0.00 in
00:50 31.4 °F 29.9 °F 29.64 in SSW 4.0 mph 8.0 mph 94% 0.00 in
00:55 31.4 °F 29.9 °F 29.63 in SSW 3.0 mph 8.0 mph 94% 0.00 in
01:00 31.4 °F 29.9 °F 29.63 in SSW 3.0 mph 8.0 mph 94% 0.00 in
01:05 31.4 °F 29.9 °F 29.62 in SSW 3.0 mph 7.0 mph 94% 0.00 in
01:10 31.4 °F 29.9 °F 29.62 in SSW 3.0 mph 7.0 mph 94% 0.00 in
01:15 31.4 °F 29.9 °F 29.62 in SSW 2.0 mph 7.0 mph 94% 0.00 in
01:20 31.4 °F 29.9 °F 29.61 in SW 4.0 mph 8.0 mph 94% 0.00 in
01:25 31.4 °F 29.9 °F 29.61 in SSW 4.0 mph 8.0 mph 94% 0.00 in
01:30 31.4 °F 29.9 °F 29.61 in SW 4.0 mph 7.0 mph 94% 0.00 in
01:35 31.4 °F 29.9 °F 29.60 in SSW 5.0 mph 9.0 mph 94% 0.00 in
01:40 31.4 °F 29.9 °F 29.60 in SW 3.0 mph 9.0 mph 94% 0.00 in
01:45 31.4 °F 29.9 °F 29.59 in SSW 3.0 mph 7.0 mph 94% 0.00 in
01:50 31.4 °F 29.9 °F 29.59 in SSW 4.0 mph 7.0 mph 94% 0.00 in
01:55 31.4 °F 29.9 °F 29.59 in SSW 4.0 mph 7.0 mph 94% 0.00 in
02:00 31.4 °F 29.9 °F 29.58 in SW 3.0 mph 8.0 mph 94% 0.00 in
02:05 31.4 °F 29.9 °F 29.58 in SSW 4.0 mph 8.0 mph 94% 0.00 in
02:10 31.4 °F 29.9 °F 29.58 in SW 4.0 mph 6.0 mph 94% 0.00 in
02:15 31.4 °F 29.9 °F 29.58 in SSW 2.0 mph 6.0 mph 94% 0.00 in
02:20 31.4 °F 29.9 °F 29.57 in SSW 3.0 mph 6.0 mph 94% 0.00 in
02:25 31.4 °F 29.9 °F 29.58 in SW 2.0 mph 5.0 mph 94% 0.00 in
02:30 31.4 °F 29.9 °F 29.57 in SW 2.0 mph 5.0 mph 94% 0.00 in
02:35 31.4 °F 29.9 °F 29.57 in Calm   5.0 mph 94% 0.00 in
02:40 31.4 °F 29.9 °F 29.57 in SW 1.0 mph 4.0 mph 94% 0.00 in
02:45 31.4 °F 29.9 °F 29.57 in SW 2.0 mph 4.0 mph 94% 0.00 in
02:50 31.5 °F 30.0 °F 29.56 in SW 3.0 mph 6.0 mph 94% 0.00 in
02:55 31.5 °F 30.0 °F 29.57 in Calm   6.0 mph 94% 0.00 in
03:00 31.5 °F 30.0 °F 29.56 in Calm   3.0 mph 94% 0.00 in
03:05 31.5 °F 30.0 °F 29.56 in Calm   2.0 mph 94% 0.00 in
03:10 31.4 °F 29.9 °F 29.56 in Calm   2.0 mph 94% 0.00 in
03:15 31.4 °F 29.9 °F 29.55 in SW 1.0 mph 4.0 mph 94% 0.00 in
03:20 31.4 °F 29.9 °F 29.55 in WSW 1.0 mph 4.0 mph 94% 0.00 in
03:25 31.3 °F 29.8 °F 29.54 in Calm   3.0 mph 94% 0.00 in
03:30 31.2 °F 29.7 °F 29.54 in West 1.0 mph 3.0 mph 94% 0.00 in
03:35 31.2 °F 29.7 °F 29.54 in Calm   3.0 mph 94% 0.00 in
03:40 31.1 °F 29.6 °F 29.54 in Calm   2.0 mph 94% 0.00 in
03:45 31.1 °F 29.6 °F 29.53 in West 1.0 mph 3.0 mph 94% 0.00 in
03:50 31.1 °F 29.6 °F 29.53 in Calm   3.0 mph 94% 0.00 in
03:55 31.0 °F 29.5 °F 29.53 in West 1.0 mph 2.0 mph 94% 0.00 in
04:00 31.0 °F 29.5 °F 29.53 in Calm   2.0 mph 94% 0.00 in
04:05 30.9 °F 29.4 °F 29.53 in West 1.0 mph 2.0 mph 94% 0.00 in
04:10 30.8 °F 29.3 °F 29.53 in WNW 1.0 mph 4.0 mph 94% 0.00 in
04:15 30.8 °F 29.3 °F 29.53 in Calm   4.0 mph 94% 0.00 in
04:20 30.8 °F 29.3 °F 29.53 in WNW 1.0 mph 4.0 mph 94% 0.00 in
04:25 30.8 °F 29.3 °F 29.53 in Calm   4.0 mph 94% 0.00 in
04:30 30.7 °F 29.2 °F 29.53 in Calm   2.0 mph 94% 0.00 in
04:35 30.7 °F 29.2 °F 29.52 in WNW 1.0 mph 2.0 mph 94% 0.00 in
04:40 30.6 °F 29.1 °F 29.52 in WNW 1.0 mph 2.0 mph 94% 0.00 in
04:45 30.6 °F 29.1 °F 29.52 in Calm   2.0 mph 94% 0.00 in
04:50 30.5 °F 29.0 °F 29.52 in Calm   2.0 mph 94% 0.00 in
04:55 30.5 °F 29.0 °F 29.52 in Calm   2.0 mph 94% 0.00 in
05:00 30.5 °F 29.0 °F 29.51 in Calm   1.0 mph 94% 0.00 in
05:05 30.5 °F 29.0 °F 29.51 in Calm   1.0 mph 94% 0.00 in
05:10 30.4 °F 28.9 °F 29.51 in Calm   2.0 mph 94% 0.00 in
05:15 30.3 °F 28.8 °F 29.51 in WNW 1.0 mph 3.0 mph 94% 0.00 in
05:20 30.3 °F 28.8 °F 29.51 in Calm   3.0 mph 94% 0.00 in
05:25 30.3 °F 28.8 °F 29.52 in NNW 1.0 mph 4.0 mph 94% 0.00 in
05:30 30.3 °F 28.8 °F 29.52 in NW 2.0 mph 4.0 mph 94% 0.00 in
05:35 30.3 °F 28.8 °F 29.52 in NNW 2.0 mph 4.0 mph 94% 0.00 in
05:40 30.2 °F 28.7 °F 29.52 in NNW 1.0 mph 4.0 mph 94% 0.00 in
05:45 30.1 °F 28.6 °F 29.52 in NNW 2.0 mph 5.0 mph 94% 0.00 in
05:50 30.1 °F 28.6 °F 29.52 in NW 1.0 mph 6.0 mph 94% 0.00 in
05:55 30.0 °F 28.5 °F 29.52 in NW 1.0 mph 6.0 mph 94% 0.00 in
06:00 29.9 °F 28.4 °F 29.52 in NW 1.0 mph 4.0 mph 94% 0.00 in
06:05 29.9 °F 28.4 °F 29.52 in NNW 2.0 mph 5.0 mph 94% 0.00 in
06:10 29.9 °F 28.4 °F 29.52 in NW 2.0 mph 5.0 mph 94% 0.00 in
06:20 29.7 °F 28.2 °F 29.52 in NNW 3.0 mph 7.0 mph 94% 0.00 in
06:25 29.7 °F 28.2 °F 29.52 in NW 4.0 mph 8.0 mph 94% 0.00 in
06:30 29.4 °F 27.9 °F 29.52 in NNW 4.0 mph 13.0 mph 94% 0.00 in
06:35 28.8 °F 27.0 °F 29.52 in NNW 5.0 mph 13.0 mph 93% 0.00 in
06:40 27.5 °F 25.5 °F 29.53 in North 3.0 mph 10.0 mph 92% 0.00 in
06:45 26.3 °F 24.0 °F 29.53 in NNW 3.0 mph 9.0 mph 91% 0.00 in
06:50 25.4 °F 23.1 °F 29.54 in NW 5.0 mph 12.0 mph 91% 0.00 in
06:55 24.7 °F 22.4 °F 29.54 in NW 5.0 mph 12.0 mph 91% 0.00 in
07:00 24.2 °F 22.0 °F 29.53 in NW 5.0 mph 11.0 mph 91% 0.00 in
07:05 23.7 °F 21.5 °F 29.54 in NW 5.0 mph 9.0 mph 91% 0.00 in
07:10 23.2 °F 20.7 °F 29.54 in NW 6.0 mph 11.0 mph 90% 0.00 in
07:15 22.6 °F 20.1 °F 29.54 in NW 5.0 mph 11.0 mph 90% 0.00 in
07:20 22.2 °F 19.7 °F 29.55 in NNW 2.0 mph 11.0 mph 90% 0.00 in
07:25 22.0 °F 19.5 °F 29.54 in NNW 2.0 mph 8.0 mph 90% 0.00 in
07:30 21.9 °F 19.4 °F 29.55 in NNW 1.0 mph 7.0 mph 90% 0.00 in
07:35 21.6 °F 19.1 °F 29.55 in NW 4.0 mph 7.0 mph 90% 0.00 in
07:40 20.9 °F 18.2 °F 29.56 in North 2.0 mph 7.0 mph 89% 0.00 in
07:45 20.5 °F 17.8 °F 29.56 in NNW 2.0 mph 6.0 mph 89% 0.00 in
07:50 20.0 °F 17.0 °F 29.56 in NNW 3.0 mph 9.0 mph 88% 0.00 in
07:55 19.7 °F 16.7 °F 29.56 in NNW 3.0 mph 12.0 mph 88% 0.00 in
08:00 19.7 °F 16.7 °F 29.56 in NNW 3.0 mph 12.0 mph 88% 0.00 in
08:05 19.5 °F 16.5 °F 29.56 in NNW 4.0 mph 11.0 mph 88% 0.00 in
08:10 19.3 °F 16.3 °F 29.56 in NNW 3.0 mph 11.0 mph 88% 0.00 in
08:15 19.2 °F 16.2 °F 29.56 in North 2.0 mph 7.0 mph 88% 0.00 in
08:20 19.1 °F 15.9 °F 29.57 in North 2.0 mph 10.0 mph 87% 0.00 in
08:25 19.1 °F 15.9 °F 29.57 in NNE 1.0 mph 10.0 mph 87% 0.00 in
08:30 19.0 °F 15.8 °F 29.57 in North 2.0 mph 8.0 mph 87% 0.00 in
08:35 18.9 °F 15.7 °F 29.57 in North 3.0 mph 9.0 mph 87% 0.00 in
08:40 18.7 °F 15.5 °F 29.57 in North 4.0 mph 10.0 mph 87% 0.00 in
08:45 18.6 °F 15.4 °F 29.57 in North 3.0 mph 10.0 mph 87% 0.00 in
08:50 18.6 °F 15.4 °F 29.57 in North 3.0 mph 12.0 mph 87% 0.00 in
08:55 18.5 °F 15.0 °F 29.57 in North 2.0 mph 12.0 mph 86% 0.00 in
09:05 18.4 °F 14.9 °F 29.58 in North 3.0 mph 11.0 mph 86% 0.00 in
09:10 18.3 °F 14.8 °F 29.58 in NNE 2.0 mph 13.0 mph 86% 0.00 in
09:15 18.2 °F 14.7 °F 29.57 in North 4.0 mph 13.0 mph 86% 0.00 in
09:20 18.2 °F 14.7 °F 29.58 in North 3.0 mph 10.0 mph 86% 0.00 in
09:25 18.2 °F 14.7 °F 29.58 in NNE 2.0 mph 11.0 mph 86% 0.00 in
09:30 18.6 °F 15.1 °F 29.58 in North 1.0 mph 11.0 mph 86% 0.00 in
09:35 18.9 °F 15.4 °F 29.58 in North 2.0 mph 6.0 mph 86% 0.00 in
09:40 18.9 °F 15.1 °F 29.58 in NNE 4.0 mph 9.0 mph 85% 0.00 in
09:45 18.8 °F 15.0 °F 29.58 in North 3.0 mph 9.0 mph 85% 0.00 in
09:50 19.0 °F 15.5 °F 29.58 in NNE 4.0 mph 9.0 mph 86% 0.00 in
09:55 19.0 °F 15.2 °F 29.58 in North 3.0 mph 8.0 mph 85% 0.00 in
10:00 18.9 °F 15.1 °F 29.58 in NNE 3.0 mph 7.0 mph 85% 0.00 in
10:05 19.0 °F 15.2 °F 29.58 in North 3.0 mph 6.0 mph 85% 0.00 in
10:10 18.8 °F 14.8 °F 29.58 in North 3.0 mph 6.0 mph 84% 0.00 in
10:15 18.7 °F 14.7 °F 29.58 in NNW 5.0 mph 11.0 mph 84% 0.00 in
10:20 18.5 °F 14.5 °F 29.58 in NNW 6.0 mph 11.0 mph 84% 0.00 in
10:25 18.1 °F 14.1 °F 29.58 in NNW 4.0 mph 13.0 mph 84% 0.00 in
10:30 17.9 °F 13.9 °F 29.58 in NNW 2.0 mph 13.0 mph 84% 0.00 in
10:35 18.0 °F 14.0 °F 29.58 in NNW 3.0 mph 12.0 mph 84% 0.00 in
10:40 17.7 °F 13.4 °F 29.59 in NNW 6.0 mph 13.0 mph 83% 0.00 in
10:45 17.4 °F 13.1 °F 29.59 in North 5.0 mph 16.0 mph 83% 0.00 in
10:50 17.2 °F 12.9 °F 29.60 in NNW 6.0 mph 16.0 mph 83% 0.00 in
10:55 16.8 °F 12.5 °F 29.59 in NNW 5.0 mph 13.0 mph 83% 0.00 in
11:00 16.4 °F 12.1 °F 29.60 in NNW 5.0 mph 15.0 mph 83% 0.00 in
11:05 16.3 °F 12.0 °F 29.60 in NNW 4.0 mph 15.0 mph 83% 0.00 in
11:10 16.3 °F 12.0 °F 29.60 in NNW 5.0 mph 10.0 mph 83% 0.00 in
11:15 16.2 °F 11.7 °F 29.60 in NNW 4.0 mph 12.0 mph 82% 0.00 in
11:20 16.0 °F 11.5 °F 29.60 in NNW 3.0 mph 12.0 mph 82% 0.00 in
11:25 15.8 °F 11.3 °F 29.60 in NNW 3.0 mph 10.0 mph 82% 0.00 in
11:30 15.9 °F 11.4 °F 29.60 in North 3.0 mph 10.0 mph 82% 0.00 in
11:35 15.9 °F 11.4 °F 29.60 in NNW 2.0 mph 9.0 mph 82% 0.00 in
11:40 15.7 °F 10.9 °F 29.60 in NNW 4.0 mph 9.0 mph 81% 0.00 in
11:45 15.8 °F 11.3 °F 29.60 in NNW 2.0 mph 9.0 mph 82% 0.00 in
11:50 16.0 °F 11.5 °F 29.60 in North 2.0 mph 7.0 mph 82% 0.00 in
11:55 15.7 °F 10.9 °F 29.60 in NNW 4.0 mph 9.0 mph 81% 0.00 in
12:00 15.5 °F 10.7 °F 29.59 in North 3.0 mph 10.0 mph 81% 0.00 in
12:05 15.4 °F 10.6 °F 29.59 in North 4.0 mph 11.0 mph 81% 0.00 in
12:10 15.3 °F 10.5 °F 29.59 in North 2.0 mph 11.0 mph 81% 0.00 in
12:15 15.2 °F 10.4 °F 29.59 in NNE 3.0 mph 9.0 mph 81% 0.00 in
12:20 15.0 °F 10.2 °F 29.59 in North 1.0 mph 7.0 mph 81% 0.00 in
12:25 15.1 °F 10.6 °F 29.60 in NNE 2.0 mph 6.0 mph 82% 0.00 in
12:30 15.1 °F 10.3 °F 29.60 in NW 1.0 mph 6.0 mph 81% 0.00 in
12:40 14.4 °F 9.6 °F 29.60 in NNE 1.0 mph 9.0 mph 81% 0.00 in
12:45 14.2 °F 9.4 °F 29.61 in North 2.0 mph 8.0 mph 81% 0.00 in
12:50 13.9 °F 9.2 °F 29.61 in North 3.0 mph 7.0 mph 81% 0.00 in
12:55 13.5 °F 8.5 °F 29.61 in North 3.0 mph 9.0 mph 80% 0.00 in
13:00 13.2 °F 8.5 °F 29.61 in NNW 4.0 mph 11.0 mph 81% 0.00 in
13:05 13.0 °F 8.3 °F 29.61 in NNE 2.0 mph 11.0 mph 81% 0.00 in
13:10 13.0 °F 8.3 °F 29.61 in North 2.0 mph 8.0 mph 81% 0.00 in
13:15 13.0 °F 8.3 °F 29.61 in NNE 1.0 mph 8.0 mph 81% 0.00 in
13:20 12.8 °F 7.8 °F 29.61 in North 4.0 mph 10.0 mph 80% 0.00 in
13:25 12.5 °F 7.8 °F 29.61 in North 2.0 mph 10.0 mph 81% 0.00 in
13:30 12.4 °F 7.7 °F 29.62 in NNW 1.0 mph 8.0 mph 81% 0.00 in
13:35 12.2 °F 7.5 °F 29.62 in NNW 3.0 mph 7.0 mph 81% 0.00 in
13:45 11.9 °F 7.2 °F 29.62 in Calm   6.0 mph 81% 0.00 in
13:50 12.0 °F 7.6 °F 29.62 in North 2.0 mph 5.0 mph 82% 0.00 in
13:55 12.1 °F 7.7 °F 29.62 in NNW 2.0 mph 7.0 mph 82% 0.00 in
14:00 12.0 °F 7.3 °F 29.63 in Calm   7.0 mph 81% 0.00 in
14:05 11.8 °F 7.1 °F 29.63 in Calm   7.0 mph 81% 0.00 in
14:10 11.7 °F 7.0 °F 29.63 in NNW 1.0 mph 5.0 mph 81% 0.00 in
14:15 11.7 °F 7.0 °F 29.63 in North 1.0 mph 5.0 mph 81% 0.00 in
14:20 11.6 °F 6.9 °F 29.63 in NNE 2.0 mph 6.0 mph 81% 0.00 in
14:25 11.6 °F 6.9 °F 29.63 in NNE 2.0 mph 7.0 mph 81% 0.00 in
14:30 11.6 °F 6.6 °F 29.63 in North 2.0 mph 7.0 mph 80% 0.00 in
14:35 11.7 °F 6.7 °F 29.63 in North 1.0 mph 5.0 mph 80% 0.00 in
14:40 11.8 °F 6.5 °F 29.64 in North 1.0 mph 4.0 mph 79% 0.00 in
14:45 11.8 °F 6.5 °F 29.64 in Calm   5.0 mph 79% 0.00 in
14:50 11.8 °F 6.5 °F 29.64 in Calm   5.0 mph 79% 0.00 in
14:55 11.8 °F 6.3 °F 29.65 in NNW 1.0 mph 5.0 mph 78% 0.00 in
15:00 11.6 °F 6.1 °F 29.65 in North 1.0 mph 5.0 mph 78% 0.00 in
15:05 11.5 °F 6.0 °F 29.65 in North 1.0 mph 5.0 mph 78% 0.00 in
15:10 11.5 °F 6.0 °F 29.66 in Calm   5.0 mph 78% 0.00 in
15:15 11.4 °F 5.9 °F 29.66 in Calm   2.0 mph 78% 0.00 in
15:20 11.3 °F 5.8 °F 29.67 in Calm   4.0 mph 78% 0.00 in
15:25 11.2 °F 5.7 °F 29.67 in NW 1.0 mph 4.0 mph 78% 0.00 in
15:30 10.8 °F 5.3 °F 29.67 in NNE 1.0 mph 8.0 mph 78% 0.00 in
15:35 10.5 °F 5.3 °F 29.67 in NW 1.0 mph 9.0 mph 79% 0.00 in
15:40 10.2 °F 5.0 °F 29.67 in NNW 5.0 mph 11.0 mph 79% 0.00 in
15:45 10.0 °F 5.1 °F 29.68 in NNW 3.0 mph 11.0 mph 80% 0.00 in
15:50 9.7 °F 4.8 °F 29.68 in NNW 5.0 mph 10.0 mph 80% 0.00 in
15:55 9.3 °F 4.4 °F 29.68 in NNW 4.0 mph 11.0 mph 80% 0.00 in
16:00 9.0 °F 4.1 °F 29.68 in NNW 3.0 mph 11.0 mph 80% 0.00 in
16:05 8.7 °F 3.8 °F 29.69 in NW 4.0 mph 10.0 mph 80% 0.00 in
16:10 8.4 °F 3.5 °F 29.69 in NNW 3.0 mph 14.0 mph 80% 0.00 in
16:15 8.2 °F 3.6 °F 29.69 in NNW 4.0 mph 14.0 mph 81% 0.00 in
16:20 8.0 °F 3.4 °F 29.69 in NNW 3.0 mph 10.0 mph 81% 0.00 in
16:25 7.9 °F 3.3 °F 29.70 in NNW 3.0 mph 10.0 mph 81% 0.00 in
16:30 7.7 °F 3.4 °F 29.70 in NNW 3.0 mph 12.0 mph 82% 0.00 in
16:35 7.6 °F 3.3 °F 29.71 in NW 3.0 mph 12.0 mph 82% 0.00 in
16:40 7.5 °F 3.2 °F 29.71 in NW 5.0 mph 9.0 mph 82% 0.00 in
16:45 7.4 °F 3.1 °F 29.71 in NW 4.0 mph 11.0 mph 82% 0.00 in
16:50 7.4 °F 3.1 °F 29.71 in NW 4.0 mph 13.0 mph 82% 0.00 in
16:55 7.3 °F 3.0 °F 29.72 in NW 7.0 mph 15.0 mph 82% 0.00 in
17:00 7.3 °F 3.0 °F 29.72 in NNW 2.0 mph 15.0 mph 82% 0.00 in
17:05 7.2 °F 2.9 °F 29.72 in NW 5.0 mph 10.0 mph 82% 0.00 in
17:10 7.1 °F 2.8 °F 29.73 in NW 4.0 mph 10.0 mph 82% 0.00 in
17:15 7.0 °F 2.7 °F 29.73 in NNW 4.0 mph 9.0 mph 82% 0.00 in
17:20 6.9 °F 2.6 °F 29.74 in NW 4.0 mph 9.0 mph 82% 0.00 in
17:25 6.9 °F 2.6 °F 29.74 in NW 3.0 mph 8.0 mph 82% 0.00 in
17:30 6.8 °F 2.5 °F 29.74 in NW 3.0 mph 8.0 mph 82% 0.00 in
17:35 6.8 °F 2.7 °F 29.75 in NW 3.0 mph 6.0 mph 83% 0.00 in
17:40 6.8 °F 2.7 °F 29.75 in NW 2.0 mph 6.0 mph 83% 0.00 in
17:45 6.7 °F 2.6 °F 29.76 in WNW 3.0 mph 7.0 mph 83% 0.00 in
17:50 6.7 °F 2.6 °F 29.76 in NW 1.0 mph 7.0 mph 83% 0.00 in
17:55 6.8 °F 2.7 °F 29.77 in NW 1.0 mph 5.0 mph 83% 0.00 in
18:00 6.8 °F 2.7 °F 29.78 in Calm   3.0 mph 83% 0.00 in
18:05 6.8 °F 2.7 °F 29.78 in WNW 2.0 mph 6.0 mph 83% 0.00 in
18:10 6.8 °F 2.5 °F 29.78 in WNW 5.0 mph 9.0 mph 82% 0.00 in
18:15 6.7 °F 2.4 °F 29.79 in WNW 3.0 mph 9.0 mph 82% 0.00 in
18:20 6.7 °F 2.1 °F 29.79 in NW 4.0 mph 9.0 mph 81% 0.00 in
18:25 6.6 °F 1.7 °F 29.80 in WNW 7.0 mph 10.0 mph 80% 0.00 in
18:30 6.4 °F 1.3 °F 29.80 in NW 5.0 mph 10.0 mph 79% 0.00 in
18:35 6.2 °F 0.8 °F 29.81 in WNW 6.0 mph 9.0 mph 78% 0.00 in
18:40 6.1 °F 0.7 °F 29.81 in NW 6.0 mph 11.0 mph 78% 0.00 in
18:50 5.7 °F 0.3 °F 29.82 in NW 3.0 mph 6.0 mph 78% 0.00 in
18:55 5.6 °F 0.0 °F 29.82 in NW 3.0 mph 8.0 mph 77% 0.00 in
19:05 5.3 °F -0.6 °F 29.83 in NW 1.0 mph 8.0 mph 76% 0.00 in
19:10 5.0 °F -0.9 °F 29.84 in NW 4.0 mph 7.0 mph 76% 0.00 in
19:15 4.8 °F -1.1 °F 29.84 in NW 1.0 mph 7.0 mph 76% 0.00 in
19:20 4.6 °F -1.3 °F 29.84 in WNW 2.0 mph 7.0 mph 76% 0.00 in
19:25 4.5 °F -1.4 °F 29.85 in WNW 3.0 mph 7.0 mph 76% 0.00 in
19:30 4.4 °F -1.5 °F 29.85 in NW 2.0 mph 7.0 mph 76% 0.00 in
19:35 4.4 °F -1.5 °F 29.86 in WNW 5.0 mph 10.0 mph 76% 0.00 in
19:40 4.2 °F -1.7 °F 29.86 in NW 3.0 mph 10.0 mph 76% 0.00 in
19:45 4.1 °F -2.1 °F 29.87 in NW 1.0 mph 7.0 mph 75% 0.00 in
19:50 4.0 °F -2.2 °F 29.87 in WNW 3.0 mph 10.0 mph 75% 0.00 in
19:55 3.8 °F -2.4 °F 29.87 in NW 5.0 mph 12.0 mph 75% 0.00 in
20:00 3.6 °F -2.8 °F 29.88 in West 5.0 mph 12.0 mph 74% 0.00 in
20:05 3.3 °F -2.8 °F 29.88 in WNW 2.0 mph 8.0 mph 75% 0.00 in
20:10 2.9 °F -3.2 °F 29.88 in WNW 4.0 mph 8.0 mph 75% 0.00 in
20:15 2.6 °F -3.5 °F 29.88 in West 2.0 mph 8.0 mph 75% 0.00 in
20:20 2.1 °F -4.0 °F 29.88 in NW 2.0 mph 7.0 mph 75% 0.00 in
20:25 1.6 °F -4.2 °F 29.88 in West 1.0 mph 7.0 mph 76% 0.00 in
20:30 1.4 °F -4.4 °F 29.89 in West 4.0 mph 8.0 mph 76% 0.00 in
20:40 1.5 °F -4.3 °F 29.90 in WNW 1.0 mph 5.0 mph 76% 0.00 in
20:45 1.2 °F -4.9 °F 29.90 in WNW 3.0 mph 6.0 mph 75% 0.00 in
20:50 1.4 °F -4.4 °F 29.90 in West 1.0 mph 6.0 mph 76% 0.00 in
20:55 1.8 °F -4.0 °F 29.91 in WNW 2.0 mph 8.0 mph 76% 0.00 in
21:00 2.0 °F -4.1 °F 29.91 in West 1.0 mph 8.0 mph 75% 0.00 in
21:05 2.0 °F -4.1 °F 29.91 in WSW 2.0 mph 6.0 mph 75% 0.00 in
21:10 2.1 °F -4.3 °F 29.92 in West 5.0 mph 9.0 mph 74% 0.00 in
21:15 2.2 °F -4.5 °F 29.92 in WNW 4.0 mph 12.0 mph 73% 0.00 in
21:20 2.1 °F -4.6 °F 29.92 in WNW 4.0 mph 12.0 mph 73% 0.00 in
21:25 2.2 °F -4.2 °F 29.93 in WNW 8.0 mph 15.0 mph 74% 0.00 in
21:30 2.2 °F -4.5 °F 29.93 in WNW 4.0 mph 15.0 mph 73% 0.00 in
21:35 2.2 °F -4.5 °F 29.94 in WNW 6.0 mph 13.0 mph 73% 0.00 in
21:45 2.5 °F -4.2 °F 29.94 in WNW 6.0 mph 11.0 mph 73% 0.00 in
21:50 2.6 °F -4.1 °F 29.94 in WNW 4.0 mph 11.0 mph 73% 0.00 in
21:55 2.7 °F -4.0 °F 29.94 in WNW 5.0 mph 11.0 mph 73% 0.00 in
22:00 2.6 °F -4.4 °F 29.94 in WNW 5.0 mph 11.0 mph 72% 0.00 in
22:05 2.6 °F -4.4 °F 29.94 in WNW 3.0 mph 11.0 mph 72% 0.00 in
22:15 1.9 °F -4.8 °F 29.94 in West 3.0 mph 8.0 mph 73% 0.00 in
22:20 1.5 °F -5.1 °F 29.95 in West 2.0 mph 8.0 mph 73% 0.00 in
22:25 1.0 °F -5.3 °F 29.95 in WNW 3.0 mph 7.0 mph 74% 0.00 in
22:30 0.7 °F -5.6 °F 29.95 in West 1.0 mph 7.0 mph 74% 0.00 in
22:40 0.3 °F -5.7 °F 29.95 in West 3.0 mph 8.0 mph 75% 0.00 in
22:45 0.8 °F -5.0 °F 29.95 in West 4.0 mph 7.0 mph 76% 0.00 in
22:50 2.0 °F -4.1 °F 29.95 in West 3.0 mph 9.0 mph 75% 0.00 in
22:55 2.3 °F -4.1 °F 29.95 in WSW 4.0 mph 9.0 mph 74% 0.00 in
23:00 2.5 °F -3.9 °F 29.96 in WSW 3.0 mph 8.0 mph 74% 0.00 in
23:05 2.3 °F -4.1 °F 29.96 in WSW 3.0 mph 9.0 mph 74% 0.00 in
23:10 2.3 °F -4.1 °F 29.96 in WSW 3.0 mph 9.0 mph 74% 0.00 in
23:15 2.3 °F -4.1 °F 29.96 in SW 2.0 mph 6.0 mph 74% 0.00 in
23:20 2.0 °F -4.4 °F 29.96 in SW 3.0 mph 6.0 mph 74% 0.00 in
23:25 2.0 °F -4.4 °F 29.96 in SW 2.0 mph 6.0 mph 74% 0.00 in
23:30 2.0 °F -4.4 °F 29.97 in WSW 2.0 mph 6.0 mph 74% 0.00 in
23:35 1.8 °F -4.6 °F 29.97 in SW 2.0 mph 6.0 mph 74% 0.00 in
23:40 2.2 °F -3.9 °F 29.97 in SW 4.0 mph 7.0 mph 75% 0.00 in
23:45 2.4 °F -4.0 °F 29.97 in SW 4.0 mph 7.0 mph 74% 0.00 in
23:50 2.5 °F -3.9 °F 29.96 in WSW 3.0 mph 7.0 mph 74% 0.00 in
23:55 2.5 °F -3.9 °F 29.97 in SW 3.0 mph 7.0 mph 74% 0.00 in
Westford Weather
Compliments of Weather Underground

 
 
Current Radar Loop:

Copyright © WestfordWeather.net 2007-2014. All rights reserved.